Archimede — IXZR — position and weather

sailwx.info

Track history (hours):
 
Tides and Currents Weather Stations Pressure Air Temp Water Temp Dewpoint Dewpoint Depression Visibility Wind Speed Wind Dir Waves Ship Positions

Archimede

Last reported at 2016-May-27 06:33 UTC. Time now 2016-May-27 06:38 UTC.
Position N 38°12' E 015°35'.

; draft 3.1 m.

Type: Passenger vessel. MMSI: 247054700.

Date/timePositionNaut miles runAvg speedWind from/ knotsBaromVisibWave heightAir tempDewpointWater temp
2016-May-27 06:33N 38°12' E 015°35'3 0.5
2016-May-27 01:22N 38°13' E 015°38'7 8.4
2016-May-27 00:33N 38°08' E 015°32'7 6.7
2016-May-26 23:33N 38°13' E 015°38'7 7.2
2016-May-26 22:33N 38°08' E 015°31'7 7.5
2016-May-26 21:33N 38°13' E 015°38'8 7.5
2016-May-26 20:33N 38°08' E 015°31'8 7.6
2016-May-26 19:33N 38°13' E 015°38'5 4.5
2016-May-26 18:33N 38°09' E 015°37'2 2.2
2016-May-26 17:33N 38°11' E 015°35'2 2.3
2016-May-26 16:33N 38°12' E 015°37'5 4.8
2016-May-26 15:33N 38°08' E 015°33'6 6.5
2016-May-26 14:33N 38°13' E 015°38'7 7.5
2016-May-26 13:33N 38°08' E 015°31'7 7.4
2016-May-26 12:34N 38°13' E 015°38'5 4.9
2016-May-26 11:33N 38°09' E 015°35'2 2.4
2016-May-26 10:33N 38°11' E 015°35'2 2.3
2016-May-26 09:33N 38°09' E 015°36'2 2.3
2016-May-26 08:33N 38°11' E 015°35'2 2.3
2016-May-26 07:34N 38°09' E 015°36'2 2.1
2016-May-26 06:33N 38°11' E 015°35'2 0.4
2016-May-26 01:33N 38°11' E 015°37'5 5.0
2016-May-26 00:33N 38°08' E 015°32'6 6.1
2016-May-25 23:33N 38°13' E 015°37'7 6.7
2016-May-25 22:33N 38°08' E 015°32'7 6.7
2016-May-25 21:34N 38°13' E 015°37'6 6.2
2016-May-25 20:33N 38°08' E 015°32'7 6.9
2016-May-25 19:33N 38°13' E 015°38'5 5.3
2016-May-25 18:33N 38°09' E 015°35'4 4.1
2016-May-25 17:33N 38°13' E 015°36'4 3.9
2016-May-25 16:33N 38°09' E 015°35'1 1.3
2016-May-25 15:33N 38°10' E 015°35'3 2.9
2016-May-25 14:33N 38°12' E 015°37'6 6.1
2016-May-25 13:33N 38°08' E 015°31'7 7.5
2016-May-25 12:33N 38°13' E 015°38'6 5.9
2016-May-25 11:33N 38°09' E 015°34'5 4.5
2016-May-25 10:33N 38°13' E 015°36'4 4.3
2016-May-25 09:33N 38°09' E 015°34'2 2.0
2016-May-25 08:33N 38°11' E 015°35'2 1.8
2016-May-25 07:33N 38°09' E 015°36'2 1.6
2016-May-25 06:33N 38°10' E 015°34'4 4.3
2016-May-25 05:32N 38°13' E 015°38'2 0.6
2016-May-25 01:33N 38°11' E 015°37'5 5.2
2016-May-25 00:33N 38°08' E 015°32'7 6.8
2016-May-24 23:34N 38°13' E 015°38'7 6.7
2016-May-24 22:33N 38°08' E 015°32'6 6.0
2016-May-24 21:33N 38°12' E 015°37'6 6.0
2016-May-24 20:33N 38°08' E 015°32'7 7.2
2016-May-24 19:33N 38°13' E 015°38'5 5.2
2016-May-24 18:33N 38°09' E 015°35'2 2.1
2016-May-24 17:33N 38°11' E 015°35'2 1.9
2016-May-24 16:33N 38°11' E 015°37'5 4.8
2016-May-24 15:33N 38°08' E 015°32'6 6.5
2016-May-24 14:33N 38°13' E 015°38'7 7.4
2016-May-24 13:33N 38°08' E 015°31'7 7.5
2016-May-24 12:33N 38°13' E 015°38'5 4.7
2016-May-24 11:34N 38°09' E 015°36'2 2.2
2016-May-24 10:33N 38°11' E 015°35'2 1.7
2016-May-24 09:34N 38°12' E 015°34'0 0.0
2016-May-24 08:34N 38°12' E 015°34'0 0.0
2016-May-24 07:33N 38°12' E 015°34'0 0.0
2016-May-24 06:33N 38°12' E 015°34'1 0.3
2016-May-24 01:34N 38°13' E 015°35'6 6.1
2016-May-24 00:34N 38°08' E 015°31'7 7.5
2016-May-23 23:33N 38°13' E 015°38'7 7.5
2016-May-23 22:34N 38°08' E 015°31'7 7.5
2016-May-23 21:33N 38°13' E 015°38'7 7.5
2016-May-23 20:33N 38°08' E 015°31'7 7.5
2016-May-23 19:33N 38°13' E 015°38'5 5.1
2016-May-23 18:33N 38°09' E 015°35'3 3.1
2016-May-23 17:33N 38°12' E 015°36'3 2.7
2016-May-23 16:33N 38°09' E 015°36'1 1.4
2016-May-23 15:33N 38°10' E 015°35'4 3.9
2016-May-23 14:33N 38°13' E 015°38'7 7.4
2016-May-23 13:33N 38°08' E 015°31'7 7.4
2016-May-23 12:34N 38°13' E 015°38'6 5.6
2016-May-23 11:34N 38°09' E 015°34'3 2.7
2016-May-23 10:33N 38°11' E 015°35'2 1.6
2016-May-23 09:33N 38°10' E 015°37'3 3.1
2016-May-23 08:33N 38°09' E 015°34'4 3.7
2016-May-23 07:34N 38°12' E 015°36'2 1.6
2016-May-23 06:33N 38°12' E 015°34'0 0.0
2016-May-22 13:33N 38°12' E 015°34'0 0.0
2016-May-22 00:03N 38°13' E 015°34'3 5.5
2016-May-21 23:33N 38°13' E 015°37'6 5.9
2016-May-21 22:33N 38°08' E 015°33'6 5.9
2016-May-21 21:33N 38°13' E 015°37'6 6.2
2016-May-21 20:33N 38°08' E 015°33'6 6.5
2016-May-21 19:34N 38°13' E 015°38'4 3.9
2016-May-21 18:34N 38°10' E 015°36'2 1.6
2016-May-21 17:33N 38°10' E 015°34'2 2.1
2016-May-21 16:34N 38°11' E 015°37'3 3.4
2016-May-21 15:33N 38°09' E 015°33'6 5.8
2016-May-21 14:33N 38°13' E 015°38'7 7.4
2016-May-21 13:33N 38°08' E 015°31'7 7.4
2016-May-21 12:34N 38°13' E 015°38'5 5.3
2016-May-21 11:34N 38°09' E 015°34'4 4.0
2016-May-21 10:31N 38°13' E 015°36'3 3.1
2016-May-21 09:34N 38°10' E 015°37'4 3.8
2016-May-21 08:33N 38°09' E 015°32'6 6.3
2016-May-21 07:33N 38°13' E 015°38'0 0.0
2016-May-21 06:33N 38°13' E 015°38'0 0.0
2016-May-21 01:34N 38°13' E 015°38'7 7.4
2016-May-21 00:34N 38°08' E 015°31'7 7.4
2016-May-20 23:33N 38°13' E 015°38'7 7.3
2016-May-20 22:33N 38°08' E 015°32'7 7.3
2016-May-20 21:33N 38°13' E 015°38'7 7.2
2016-May-20 20:31N 38°08' E 015°31'7 7.6
2016-May-20 19:33N 38°13' E 015°38'5 5.5
2016-May-20 18:33N 38°09' E 015°34'2 2.1
2016-May-20 17:34N 38°11' E 015°35'2 1.9
2016-May-20 16:33N 38°10' E 015°37'4 4.4
2016-May-20 15:33N 38°08' E 015°32'7 6.7
2016-May-20 14:33N 38°13' E 015°38'7 7.4
2016-May-20 13:33N 38°08' E 015°31'7 7.5
2016-May-20 12:33N 38°13' E 015°38'6 6.2
2016-May-20 11:33N 38°08' E 015°33'5 4.8
2016-May-20 10:33N 38°13' E 015°36'4 3.7
2016-May-20 09:33N 38°09' E 015°36'2 1.6
2016-May-20 08:33N 38°10' E 015°34'2 2.3
2016-May-20 07:34N 38°10' E 015°37'2 2.0
2016-May-20 06:33N 38°10' E 015°34'4 0.8
2016-May-20 01:33N 38°13' E 015°38'0 0.0
2016-May-19 23:33N 38°13' E 015°38'5 3.6
2016-May-19 22:08N 38°09' E 015°34'5 5.8
2016-May-19 21:21N 38°13' E 015°37'7 8.6
2016-May-19 20:34N 38°08' E 015°31'7 7.5
2016-May-19 19:33N 38°13' E 015°38'4 3.7
2016-May-19 18:34N 38°10' E 015°37'2 1.9
2016-May-19 17:33N 38°10' E 015°34'2 2.2
2016-May-19 16:34N 38°11' E 015°37'2 2.3
2016-May-19 15:34N 38°10' E 015°34'5 4.8
2016-May-19 14:34N 38°13' E 015°38'7 7.4
2016-May-19 13:33N 38°08' E 015°31'7 7.4
2016-May-19 12:34N 38°13' E 015°38'1 1.4
2016-May-19 11:34N 38°12' E 015°37'2 2.2
2016-May-19 10:33N 38°13' E 015°34'0 0.0
2016-May-19 09:33N 38°13' E 015°34'0 0.0
2016-May-19 08:33N 38°13' E 015°34'0 0.0
2016-May-19 07:33N 38°13' E 015°34'0 0.0
2016-May-19 00:17N 38°13' E 015°34'3 4.6
2016-May-18 23:33N 38°10' E 015°37'3 3.2
2016-May-18 22:33N 38°09' E 015°33'6 5.9
2016-May-18 21:33N 38°13' E 015°38'7 7.5
2016-May-18 20:33N 38°08' E 015°31'7 7.5
2016-May-18 19:33N 38°13' E 015°38'5 5.1
2016-May-18 18:34N 38°09' E 015°35'3 2.7
2016-May-18 17:34N 38°11' E 015°35'2 2.2
2016-May-18 16:33N 38°09' E 015°37'2 1.8
2016-May-18 15:33N 38°10' E 015°34'4 4.1
2016-May-18 14:33N 38°13' E 015°38'7 7.3
2016-May-18 13:33N 38°08' E 015°31'7 7.6
2016-May-18 12:33N 38°13' E 015°38'7 7.4
2016-May-18 11:33N 38°08' E 015°31'7 7.6
2016-May-18 10:33N 38°13' E 015°38'6 6.0
2016-May-18 09:33N 38°09' E 015°34'4 3.8
2016-May-18 08:33N 38°12' E 015°36'4 3.7
2016-May-18 07:33N 38°09' E 015°34'3 3.1
2016-May-18 06:34N 38°11' E 015°35'3 0.6
2016-May-18 01:33N 38°13' E 015°38'7 7.4
2016-May-18 00:33N 38°08' E 015°31'7 7.5
2016-May-17 23:33N 38°13' E 015°38'7 7.4
2016-May-17 22:33N 38°08' E 015°31'7 7.5
2016-May-17 21:33N 38°13' E 015°38'7 7.4
2016-May-17 20:33N 38°08' E 015°32'7 7.4
2016-May-17 19:33N 38°13' E 015°38'6 6.2
2016-May-17 18:33N 38°08' E 015°33'2 2.1
2016-May-17 17:34N 38°10' E 015°35'2 2.0
2016-May-17 16:33N 38°10' E 015°37'3 3.4
2016-May-17 15:33N 38°09' E 015°33'6 5.8
2016-May-17 14:33N 38°13' E 015°38'7 7.4
2016-May-17 13:33N 38°08' E 015°31'7 7.4
2016-May-17 12:33N 38°13' E 015°38'7 7.4
2016-May-17 11:33N 38°08' E 015°31'7 7.4
2016-May-17 10:33N 38°13' E 015°38'6 5.7
2016-May-17 09:34N 38°09' E 015°34'4 4.5
2016-May-17 08:33N 38°13' E 015°36'4 4.4
2016-May-17 07:34N 38°09' E 015°34'  
Track history (hours):
 
Tides and Currents Weather Stations Pressure Air Temp Water Temp Dewpoint Dewpoint Depression Visibility Wind Speed Wind Dir Waves Ship Positions

Archimede

Last reported at 2016-May-27 06:33 UTC. Time now 2016-May-27 06:38 UTC.
Position N 38°12' E 015°35'.

; draft 3.1 m.

Type: Passenger vessel. MMSI: 247054700.

Date/timePositionNaut miles runAvg speedWind from/ knotsBaromVisibWave heightAir tempDewpointWater temp
2016-May-27 06:33N 38°12' E 015°35'3 0.5
2016-May-27 01:22N 38°13' E 015°38'7 8.4
2016-May-27 00:33N 38°08' E 015°32'7 6.7
2016-May-26 23:33N 38°13' E 015°38'7 7.2
2016-May-26 22:33N 38°08' E 015°31'7 7.5
2016-May-26 21:33N 38°13' E 015°38'8 7.5
2016-May-26 20:33N 38°08' E 015°31'8 7.6
2016-May-26 19:33N 38°13' E 015°38'5 4.5
2016-May-26 18:33N 38°09' E 015°37'2 2.2
2016-May-26 17:33N 38°11' E 015°35'2 2.3
2016-May-26 16:33N 38°12' E 015°37'5 4.8
2016-May-26 15:33N 38°08' E 015°33'6 6.5
2016-May-26 14:33N 38°13' E 015°38'7 7.5
2016-May-26 13:33N 38°08' E 015°31'7 7.4
2016-May-26 12:34N 38°13' E 015°38'5 4.9
2016-May-26 11:33N 38°09' E 015°35'2 2.4
2016-May-26 10:33N 38°11' E 015°35'2 2.3
2016-May-26 09:33N 38°09' E 015°36'2 2.3
2016-May-26 08:33N 38°11' E 015°35'2 2.3
2016-May-26 07:34N 38°09' E 015°36'2 2.1
2016-May-26 06:33N 38°11' E 015°35'2 0.4
2016-May-26 01:33N 38°11' E 015°37'5 5.0
2016-May-26 00:33N 38°08' E 015°32'6 6.1
2016-May-25 23:33N 38°13' E 015°37'7 6.7
2016-May-25 22:33N 38°08' E 015°32'7 6.7
2016-May-25 21:34N 38°13' E 015°37'6 6.2
2016-May-25 20:33N 38°08' E 015°32'7 6.9
2016-May-25 19:33N 38°13' E 015°38'5 5.3
2016-May-25 18:33N 38°09' E 015°35'4 4.1
2016-May-25 17:33N 38°13' E 015°36'4 3.9
2016-May-25 16:33N 38°09' E 015°35'1 1.3
2016-May-25 15:33N 38°10' E 015°35'3 2.9
2016-May-25 14:33N 38°12' E 015°37'6 6.1
2016-May-25 13:33N 38°08' E 015°31'7 7.5
2016-May-25 12:33N 38°13' E 015°38'6 5.9
2016-May-25 11:33N 38°09' E 015°34'5 4.5
2016-May-25 10:33N 38°13' E 015°36'4 4.3
2016-May-25 09:33N 38°09' E 015°34'2 2.0
2016-May-25 08:33N 38°11' E 015°35'2 1.8
2016-May-25 07:33N 38°09' E 015°36'2 1.6
2016-May-25 06:33N 38°10' E 015°34'4 4.3
2016-May-25 05:32N 38°13' E 015°38'2 0.6
2016-May-25 01:33N 38°11' E 015°37'5 5.2
2016-May-25 00:33N 38°08' E 015°32'7 6.8
2016-May-24 23:34N 38°13' E 015°38'7 6.7
2016-May-24 22:33N 38°08' E 015°32'6 6.0
2016-May-24 21:33N 38°12' E 015°37'6 6.0
2016-May-24 20:33N 38°08' E 015°32'7 7.2
2016-May-24 19:33N 38°13' E 015°38'5 5.2
2016-May-24 18:33N 38°09' E 015°35'2 2.1
2016-May-24 17:33N 38°11' E 015°35'2 1.9
2016-May-24 16:33N 38°11' E 015°37'5 4.8
2016-May-24 15:33N 38°08' E 015°32'6 6.5
2016-May-24 14:33N 38°13' E 015°38'7 7.4
2016-May-24 13:33N 38°08' E 015°31'7 7.5
2016-May-24 12:33N 38°13' E 015°38'5 4.7
2016-May-24 11:34N 38°09' E 015°36'2 2.2
2016-May-24 10:33N 38°11' E 015°35'2 1.7
2016-May-24 09:34N 38°12' E 015°34'0 0.0
2016-May-24 08:34N 38°12' E 015°34'0 0.0
2016-May-24 07:33N 38°12' E 015°34'0 0.0
2016-May-24 06:33N 38°12' E 015°34'1 0.3
2016-May-24 01:34N 38°13' E 015°35'6 6.1
2016-May-24 00:34N 38°08' E 015°31'7 7.5
2016-May-23 23:33N 38°13' E 015°38'7 7.5
2016-May-23 22:34N 38°08' E 015°31'7 7.5
2016-May-23 21:33N 38°13' E 015°38'7 7.5
2016-May-23 20:33N 38°08' E 015°31'7 7.5
2016-May-23 19:33N 38°13' E 015°38'5 5.1
2016-May-23 18:33N 38°09' E 015°35'3 3.1
2016-May-23 17:33N 38°12' E 015°36'3 2.7
2016-May-23 16:33N 38°09' E 015°36'1 1.4
2016-May-23 15:33N 38°10' E 015°35'4 3.9
2016-May-23 14:33N 38°13' E 015°38'7 7.4
2016-May-23 13:33N 38°08' E 015°31'7 7.4
2016-May-23 12:34N 38°13' E 015°38'6 5.6
2016-May-23 11:34N 38°09' E 015°34'3 2.7
2016-May-23 10:33N 38°11' E 015°35'2 1.6
2016-May-23 09:33N 38°10' E 015°37'3 3.1
2016-May-23 08:33N 38°09' E 015°34'4 3.7
2016-May-23 07:34N 38°12' E 015°36'2 1.6
2016-May-23 06:33N 38°12' E 015°34'0 0.0
2016-May-22 13:33N 38°12' E 015°34'0 0.0
2016-May-22 00:03N 38°13' E 015°34'3 5.5
2016-May-21 23:33N 38°13' E 015°37'6 5.9
2016-May-21 22:33N 38°08' E 015°33'6 5.9
2016-May-21 21:33N 38°13' E 015°37'6 6.2
2016-May-21 20:33N 38°08' E 015°33'6 6.5
2016-May-21 19:34N 38°13' E 015°38'4 3.9
2016-May-21 18:34N 38°10' E 015°36'2 1.6
2016-May-21 17:33N 38°10' E 015°34'2 2.1
2016-May-21 16:34N 38°11' E 015°37'3 3.4
2016-May-21 15:33N 38°09' E 015°33'6 5.8
2016-May-21 14:33N 38°13' E 015°38'7 7.4
2016-May-21 13:33N 38°08' E 015°31'7 7.4
2016-May-21 12:34N 38°13' E 015°38'5 5.3
2016-May-21 11:34N 38°09' E 015°34'4 4.0
2016-May-21 10:31N 38°13' E 015°36'3 3.1
2016-May-21 09:34N 38°10' E 015°37'4 3.8
2016-May-21 08:33N 38°09' E 015°32'6 6.3
2016-May-21 07:33N 38°13' E 015°38'0 0.0
2016-May-21 06:33N 38°13' E 015°38'0 0.0
2016-May-21 01:34N 38°13' E 015°38'7 7.4
2016-May-21 00:34N 38°08' E 015°31'7 7.4
2016-May-20 23:33N 38°13' E 015°38'7 7.3
2016-May-20 22:33N 38°08' E 015°32'7 7.3
2016-May-20 21:33N 38°13' E 015°38'7 7.2
2016-May-20 20:31N 38°08' E 015°31'7 7.6
2016-May-20 19:33N 38°13' E 015°38'5 5.5
2016-May-20 18:33N 38°09' E 015°34'2 2.1
2016-May-20 17:34N 38°11' E 015°35'2 1.9
2016-May-20 16:33N 38°10' E 015°37'4 4.4
2016-May-20 15:33N 38°08' E 015°32'7 6.7
2016-May-20 14:33N 38°13' E 015°38'7 7.4
2016-May-20 13:33N 38°08' E 015°31'7 7.5
2016-May-20 12:33N 38°13' E 015°38'6 6.2
2016-May-20 11:33N 38°08' E 015°33'5 4.8
2016-May-20 10:33N 38°13' E 015°36'4 3.7
2016-May-20 09:33N 38°09' E 015°36'2 1.6
2016-May-20 08:33N 38°10' E 015°34'2 2.3
2016-May-20 07:34N 38°10' E 015°37'2 2.0
2016-May-20 06:33N 38°10' E 015°34'4 0.8
2016-May-20 01:33N 38°13' E 015°38'0 0.0
2016-May-19 23:33N 38°13' E 015°38'5 3.6
2016-May-19 22:08N 38°09' E 015°34'5 5.8
2016-May-19 21:21N 38°13' E 015°37'7 8.6
2016-May-19 20:34N 38°08' E 015°31'7 7.5
2016-May-19 19:33N 38°13' E 015°38'4 3.7
2016-May-19 18:34N 38°10' E 015°37'2 1.9
2016-May-19 17:33N 38°10' E 015°34'2 2.2
2016-May-19 16:34N 38°11' E 015°37'2 2.3
2016-May-19 15:34N 38°10' E 015°34'5 4.8
2016-May-19 14:34N 38°13' E 015°38'7 7.4
2016-May-19 13:33N 38°08' E 015°31'7 7.4
2016-May-19 12:34N 38°13' E 015°38'1 1.4
2016-May-19 11:34N 38°12' E 015°37'2 2.2
2016-May-19 10:33N 38°13' E 015°34'0 0.0
2016-May-19 09:33N 38°13' E 015°34'0 0.0
2016-May-19 08:33N 38°13' E 015°34'0 0.0
2016-May-19 07:33N 38°13' E 015°34'0 0.0
2016-May-19 00:17N 38°13' E 015°34'3 4.6
2016-May-18 23:33N 38°10' E 015°37'3 3.2
2016-May-18 22:33N 38°09' E 015°33'6 5.9
2016-May-18 21:33N 38°13' E 015°38'7 7.5
2016-May-18 20:33N 38°08' E 015°31'7 7.5
2016-May-18 19:33N 38°13' E 015°38'5 5.1
2016-May-18 18:34N 38°09' E 015°35'3 2.7
2016-May-18 17:34N 38°11' E 015°35'2 2.2
2016-May-18 16:33N 38°09' E 015°37'2 1.8
2016-May-18 15:33N 38°10' E 015°34'4 4.1
2016-May-18 14:33N 38°13' E 015°38'7 7.3
2016-May-18 13:33N 38°08' E 015°31'7 7.6
2016-May-18 12:33N 38°13' E 015°38'7 7.4
2016-May-18 11:33N 38°08' E 015°31'7 7.6
2016-May-18 10:33N 38°13' E 015°38'6 6.0
2016-May-18 09:33N 38°09' E 015°34'4 3.8
2016-May-18 08:33N 38°12' E 015°36'4 3.7
2016-May-18 07:33N 38°09' E 015°34'3 3.1
2016-May-18 06:34N 38°11' E 015°35'3 0.6
2016-May-18 01:33N 38°13' E 015°38'7 7.4
2016-May-18 00:33N 38°08' E 015°31'7 7.5
2016-May-17 23:33N 38°13' E 015°38'7 7.4
2016-May-17 22:33N 38°08' E 015°31'7 7.5
2016-May-17 21:33N 38°13' E 015°38'7 7.4
2016-May-17 20:33N 38°08' E 015°32'7 7.4
2016-May-17 19:33N 38°13' E 015°38'6 6.2
2016-May-17 18:33N 38°08' E 015°33'2 2.1
2016-May-17 17:34N 38°10' E 015°35'2 2.0
2016-May-17 16:33N 38°10' E 015°37'3 3.4
2016-May-17 15:33N 38°09' E 015°33'6 5.8
2016-May-17 14:33N 38°13' E 015°38'7 7.4
2016-May-17 13:33N 38°08' E 015°31'7 7.4
2016-May-17 12:33N 38°13' E 015°38'7 7.4
2016-May-17 11:33N 38°08' E 015°31'7 7.4
2016-May-17 10:33N 38°13' E 015°38'6 5.7
2016-May-17 09:34N 38°09' E 015°34'4 4.5
2016-May-17 08:33N 38°13' E 015°36'4 4.4
2016-May-17 07:34N 38°09' E 015°34'  

Dump ship's entire track history